UPS241 KBFI-PANC
Flight info
| Callsign | UPS241 |
|---|---|
| Flight time | 3h 10m |
| Altitude | 40000 |
| Route | PERLL ARRIE LAIRE JOH PTERS3 |
| Aircraft | MD11/H-SDE1E2E3FGHIJ2J3J4J5M1RWXY/LB1D1 |
Departure
| Time | 2026-05-07 10:31 |
|---|---|
| Airport | King County International Airport - Boeing Field (KBFI) |
Arrival
| Time | 2026-05-07 13:41 |
|---|---|
| Airport | Ted Stevens Anchorage International Airport (PANC) |
| Time | Latitude | Longitude | Altitude | Speed | Heading |
|---|---|---|---|---|---|
| 2026-05-07 10:31 | 47.52677 | -122.58584 | 11958 ft | 368 kts | 304° |
| 2026-05-07 10:31 | 47.54188 | -122.61652 | 12819 ft | 382 kts | 308° |
| 2026-05-07 10:31 | 47.55834 | -122.64764 | 13865 ft | 389 kts | 309° |
| 2026-05-07 10:31 | 47.57545 | -122.67849 | 14909 ft | 395 kts | 311° |
| 2026-05-07 10:32 | 47.59449 | -122.70790 | 15979 ft | 400 kts | 314° |
| 2026-05-07 10:32 | 47.61408 | -122.73699 | 16994 ft | 405 kts | 314° |
| 2026-05-07 10:32 | 47.63389 | -122.76636 | 17989 ft | 409 kts | 314° |
| 2026-05-07 10:32 | 47.65393 | -122.79632 | 18975 ft | 413 kts | 313° |
| 2026-05-07 10:33 | 47.67399 | -122.82671 | 19915 ft | 417 kts | 313° |
| 2026-05-07 10:33 | 47.69434 | -122.85773 | 20839 ft | 421 kts | 313° |
| 2026-05-07 10:33 | 47.71467 | -122.88886 | 21715 ft | 425 kts | 313° |
| 2026-05-07 10:33 | 47.73481 | -122.92060 | 22521 ft | 429 kts | 310° |
| 2026-05-07 10:34 | 47.75234 | -122.95659 | 23269 ft | 435 kts | 301° |
| 2026-05-07 10:34 | 47.76635 | -122.99593 | 24080 ft | 439 kts | 295° |
| 2026-05-07 10:34 | 47.77857 | -123.03809 | 24862 ft | 444 kts | 292° |
| 2026-05-07 10:34 | 47.78939 | -123.08036 | 25674 ft | 447 kts | 291° |
| 2026-05-07 10:35 | 47.79988 | -123.12407 | 26551 ft | 449 kts | 290° |
| 2026-05-07 10:35 | 47.81000 | -123.16765 | 27422 ft | 451 kts | 290° |
| 2026-05-07 10:35 | 47.82009 | -123.21172 | 28161 ft | 454 kts | 290° |
| 2026-05-07 10:35 | 47.83007 | -123.25568 | 29152 ft | 452 kts | 290° |
| 2026-05-07 10:36 | 47.84003 | -123.29980 | 30256 ft | 447 kts | 290° |
| 2026-05-07 10:36 | 47.84971 | -123.34266 | 31321 ft | 442 kts | 290° |
| 2026-05-07 10:36 | 47.85968 | -123.38551 | 32299 ft | 437 kts | 292° |
| 2026-05-07 10:36 | 47.87219 | -123.42627 | 33172 ft | 433 kts | 298° |
| 2026-05-07 10:37 | 47.88787 | -123.46386 | 34016 ft | 430 kts | 305° |
| 2026-05-07 10:37 | 47.90656 | -123.49846 | 34897 ft | 428 kts | 311° |
| 2026-05-07 10:37 | 47.92777 | -123.52926 | 35721 ft | 427 kts | 317° |
| 2026-05-07 10:37 | 47.95120 | -123.55609 | 36479 ft | 425 kts | 320° |
| 2026-05-07 10:38 | 47.97486 | -123.58193 | 37152 ft | 423 kts | 320° |
| 2026-05-07 10:38 | 47.99828 | -123.60780 | 37711 ft | 421 kts | 320° |
| 2026-05-07 10:38 | 48.02150 | -123.63362 | 38235 ft | 420 kts | 320° |
| 2026-05-07 10:38 | 48.04490 | -123.65978 | 38744 ft | 419 kts | 319° |
| 2026-05-07 10:39 | 48.06793 | -123.68565 | 39282 ft | 417 kts | 319° |
| 2026-05-07 10:39 | 48.09094 | -123.71149 | 39797 ft | 416 kts | 318° |
| 2026-05-07 10:39 | 48.13760 | -123.76395 | 39914 ft | 420 kts | 319° |
| 2026-05-07 10:40 | 48.16048 | -123.78961 | 40128 ft | 417 kts | 318° |
| 2026-05-07 10:40 | 48.18376 | -123.81576 | 40152 ft | 415 kts | 318° |
| 2026-05-07 10:40 | 48.22976 | -123.86750 | 40164 ft | 414 kts | 318° |
| 2026-05-07 10:41 | 48.27563 | -123.91897 | 40176 ft | 414 kts | 318° |
| 2026-05-07 10:41 | 48.32152 | -123.97046 | 40173 ft | 415 kts | 318° |
| 2026-05-07 10:42 | 48.36768 | -124.02218 | 40168 ft | 415 kts | 318° |
| 2026-05-07 10:42 | 48.41380 | -124.07389 | 40148 ft | 414 kts | 319° |
| 2026-05-07 10:43 | 48.46003 | -124.12562 | 40154 ft | 415 kts | 319° |
| 2026-05-07 10:43 | 48.50594 | -124.17699 | 40161 ft | 415 kts | 319° |
| 2026-05-07 10:44 | 48.55232 | -124.22892 | 40155 ft | 416 kts | 319° |
| 2026-05-07 10:44 | 48.59847 | -124.28050 | 40148 ft | 416 kts | 319° |
| 2026-05-07 10:45 | 48.64448 | -124.33308 | 40151 ft | 415 kts | 317° |
| 2026-05-07 10:45 | 48.69008 | -124.38650 | 40154 ft | 416 kts | 317° |
| 2026-05-07 10:46 | 48.73577 | -124.43977 | 40146 ft | 416 kts | 318° |
| 2026-05-07 10:46 | 48.78144 | -124.49288 | 40154 ft | 417 kts | 317° |
| 2026-05-07 10:47 | 48.82749 | -124.54643 | 40151 ft | 416 kts | 317° |
| 2026-05-07 10:47 | 48.87315 | -124.59947 | 40137 ft | 416 kts | 318° |
| 2026-05-07 10:48 | 48.91884 | -124.65247 | 40137 ft | 416 kts | 317° |
| 2026-05-07 10:48 | 48.96458 | -124.70558 | 40140 ft | 416 kts | 317° |
| 2026-05-07 10:49 | 49.01082 | -124.75919 | 40143 ft | 416 kts | 317° |
| 2026-05-07 10:49 | 49.05655 | -124.81218 | 40153 ft | 415 kts | 317° |
| 2026-05-07 10:50 | 49.10236 | -124.86526 | 40155 ft | 415 kts | 317° |
| 2026-05-07 10:50 | 49.14815 | -124.91828 | 40160 ft | 415 kts | 317° |
| 2026-05-07 10:51 | 49.19392 | -124.97126 | 40169 ft | 415 kts | 317° |
| 2026-05-07 10:51 | 49.23986 | -125.02440 | 40172 ft | 415 kts | 317° |
| 2026-05-07 10:52 | 49.28558 | -125.07747 | 40146 ft | 415 kts | 317° |
| 2026-05-07 10:52 | 49.33090 | -125.13230 | 40137 ft | 414 kts | 316° |
| 2026-05-07 10:53 | 49.37574 | -125.18654 | 40133 ft | 414 kts | 317° |
| 2026-05-07 10:53 | 49.42107 | -125.24117 | 40136 ft | 414 kts | 317° |
| 2026-05-07 10:54 | 49.46614 | -125.29547 | 40135 ft | 413 kts | 317° |
| 2026-05-07 10:54 | 49.51113 | -125.34958 | 40134 ft | 412 kts | 317° |
| 2026-05-07 10:55 | 49.55642 | -125.40400 | 40129 ft | 413 kts | 317° |
| 2026-05-07 10:55 | 49.60147 | -125.45815 | 40134 ft | 413 kts | 317° |
| 2026-05-07 10:56 | 49.64643 | -125.51215 | 40135 ft | 411 kts | 317° |
| 2026-05-07 10:56 | 49.69168 | -125.56644 | 40136 ft | 411 kts | 317° |
| 2026-05-07 10:57 | 49.73656 | -125.62026 | 40131 ft | 411 kts | 318° |
| 2026-05-07 10:57 | 49.78141 | -125.67405 | 40137 ft | 410 kts | 317° |
| 2026-05-07 10:58 | 49.82651 | -125.72805 | 40131 ft | 410 kts | 317° |
| 2026-05-07 10:58 | 49.87141 | -125.78185 | 40144 ft | 411 kts | 317° |
| 2026-05-07 10:59 | 49.91664 | -125.83602 | 40137 ft | 410 kts | 317° |
| 2026-05-07 10:59 | 49.96090 | -125.89016 | 40142 ft | 409 kts | 316° |
| 2026-05-07 11:00 | 50.00511 | -125.94579 | 40134 ft | 407 kts | 317° |
| 2026-05-07 11:00 | 50.04892 | -126.00060 | 40129 ft | 407 kts | 317° |
| 2026-05-07 11:01 | 50.09292 | -126.05548 | 40133 ft | 408 kts | 317° |
| 2026-05-07 11:01 | 50.13730 | -126.11085 | 40136 ft | 409 kts | 317° |
| 2026-05-07 11:02 | 50.18151 | -126.16594 | 40131 ft | 410 kts | 317° |
| 2026-05-07 11:02 | 50.22591 | -126.22128 | 40139 ft | 409 kts | 317° |
| 2026-05-07 11:03 | 50.27030 | -126.27650 | 40138 ft | 409 kts | 317° |
| 2026-05-07 11:03 | 50.31467 | -126.33167 | 40133 ft | 410 kts | 317° |
| 2026-05-07 11:04 | 50.35897 | -126.38674 | 40137 ft | 410 kts | 317° |
| 2026-05-07 11:04 | 50.40346 | -126.44202 | 40154 ft | 409 kts | 317° |
| 2026-05-07 11:05 | 50.44779 | -126.49715 | 40176 ft | 408 kts | 317° |
| 2026-05-07 11:05 | 50.49228 | -126.55231 | 40188 ft | 408 kts | 317° |
| 2026-05-07 11:06 | 50.53650 | -126.60717 | 40182 ft | 409 kts | 317° |
| 2026-05-07 11:06 | 50.58126 | -126.66270 | 40178 ft | 409 kts | 317° |
| 2026-05-07 11:07 | 50.62486 | -126.71895 | 40179 ft | 408 kts | 316° |
| 2026-05-07 11:07 | 50.66853 | -126.77581 | 40182 ft | 407 kts | 316° |
| 2026-05-07 11:08 | 50.71195 | -126.83204 | 40192 ft | 406 kts | 316° |
| 2026-05-07 11:08 | 50.75543 | -126.88834 | 40206 ft | 407 kts | 316° |
| 2026-05-07 11:09 | 50.79916 | -126.94496 | 40214 ft | 407 kts | 316° |
| 2026-05-07 11:09 | 50.84269 | -127.00117 | 40205 ft | 407 kts | 316° |
| 2026-05-07 11:10 | 50.88658 | -127.05783 | 40211 ft | 406 kts | 316° |
| 2026-05-07 11:10 | 50.92995 | -127.11386 | 40207 ft | 406 kts | 316° |
| 2026-05-07 11:11 | 50.97358 | -127.17011 | 40212 ft | 405 kts | 316° |
| 2026-05-07 11:11 | 51.01720 | -127.22633 | 40211 ft | 405 kts | 316° |
| 2026-05-07 11:12 | 51.06087 | -127.28263 | 40206 ft | 406 kts | 316° |
| 2026-05-07 11:12 | 51.10455 | -127.33883 | 40199 ft | 406 kts | 316° |
| 2026-05-07 11:13 | 51.14820 | -127.39507 | 40193 ft | 406 kts | 317° |
| 2026-05-07 11:13 | 51.19210 | -127.45146 | 40187 ft | 405 kts | 317° |
| 2026-05-07 11:14 | 51.23557 | -127.50752 | 40185 ft | 404 kts | 316° |
| 2026-05-07 11:14 | 51.27850 | -127.56554 | 40183 ft | 405 kts | 316° |
| 2026-05-07 11:15 | 51.32127 | -127.62326 | 40199 ft | 405 kts | 316° |
| 2026-05-07 11:15 | 51.36414 | -127.68099 | 40204 ft | 405 kts | 315° |
| 2026-05-07 11:16 | 51.40710 | -127.73875 | 40209 ft | 404 kts | 315° |
| 2026-05-07 11:16 | 51.45014 | -127.79648 | 40216 ft | 405 kts | 315° |
| 2026-05-07 11:17 | 51.49318 | -127.85420 | 40209 ft | 406 kts | 315° |
| 2026-05-07 11:17 | 51.53631 | -127.91204 | 40203 ft | 405 kts | 315° |
| 2026-05-07 11:18 | 51.57933 | -127.96960 | 40206 ft | 405 kts | 315° |
| 2026-05-07 11:18 | 51.62243 | -128.02737 | 40211 ft | 405 kts | 315° |
| 2026-05-07 11:19 | 51.66551 | -128.08501 | 40209 ft | 405 kts | 316° |
| 2026-05-07 11:19 | 51.70878 | -128.14282 | 40214 ft | 405 kts | 315° |
| 2026-05-07 11:20 | 51.75194 | -128.20053 | 40210 ft | 404 kts | 316° |
| 2026-05-07 11:20 | 51.79495 | -128.25794 | 40214 ft | 403 kts | 316° |
| 2026-05-07 11:21 | 51.83801 | -128.31545 | 40218 ft | 404 kts | 316° |
| 2026-05-07 11:21 | 51.88105 | -128.37334 | 40215 ft | 403 kts | 314° |
| 2026-05-07 11:22 | 51.92323 | -128.43274 | 40209 ft | 403 kts | 314° |
| 2026-05-07 11:22 | 51.96542 | -128.49191 | 40210 ft | 403 kts | 314° |
| 2026-05-07 11:23 | 52.00779 | -128.55115 | 40208 ft | 403 kts | 315° |
| 2026-05-07 11:23 | 52.05017 | -128.61026 | 40208 ft | 403 kts | 315° |
| 2026-05-07 11:24 | 52.09248 | -128.66933 | 40216 ft | 404 kts | 314° |
| 2026-05-07 11:24 | 52.13510 | -128.72871 | 40230 ft | 404 kts | 314° |
| 2026-05-07 11:25 | 52.17753 | -128.78783 | 40233 ft | 402 kts | 314° |
| 2026-05-07 11:25 | 52.21983 | -128.84671 | 40220 ft | 402 kts | 314° |
| 2026-05-07 11:26 | 52.26221 | -128.90559 | 40221 ft | 402 kts | 314° |
| 2026-05-07 11:26 | 52.30454 | -128.96448 | 40219 ft | 403 kts | 314° |
| 2026-05-07 11:27 | 52.34705 | -129.02348 | 40219 ft | 404 kts | 314° |
| 2026-05-07 11:27 | 52.38987 | -129.08296 | 40211 ft | 404 kts | 314° |
| 2026-05-07 11:28 | 52.43248 | -129.14208 | 40203 ft | 403 kts | 315° |
| 2026-05-07 11:28 | 52.47495 | -129.20090 | 40203 ft | 403 kts | 315° |
| 2026-05-07 11:29 | 52.51743 | -129.26070 | 40206 ft | 402 kts | 314° |
| 2026-05-07 11:29 | 52.55891 | -129.32143 | 40206 ft | 402 kts | 314° |
| 2026-05-07 11:30 | 52.60051 | -129.38209 | 40219 ft | 403 kts | 314° |
| 2026-05-07 11:30 | 52.64251 | -129.44322 | 40204 ft | 404 kts | 314° |
| 2026-05-07 11:31 | 52.68439 | -129.50400 | 40202 ft | 404 kts | 314° |
| 2026-05-07 11:31 | 52.72658 | -129.56522 | 40216 ft | 404 kts | 314° |
| 2026-05-07 11:32 | 52.78955 | -129.65645 | 40212 ft | 405 kts | 313° |
| 2026-05-07 11:33 | 52.83186 | -129.71779 | 40218 ft | 404 kts | 313° |
| 2026-05-07 11:33 | 52.87388 | -129.77855 | 40187 ft | 404 kts | 313° |
| 2026-05-07 11:34 | 52.91605 | -129.83955 | 40208 ft | 404 kts | 313° |
| 2026-05-07 11:34 | 52.95834 | -129.90063 | 40215 ft | 404 kts | 314° |
| 2026-05-07 11:35 | 53.00035 | -129.96135 | 40211 ft | 404 kts | 314° |
| 2026-05-07 11:35 | 53.04274 | -130.02246 | 40200 ft | 404 kts | 314° |
| 2026-05-07 11:36 | 53.08512 | -130.08363 | 40197 ft | 404 kts | 314° |
| 2026-05-07 11:36 | 53.12740 | -130.14452 | 40209 ft | 405 kts | 313° |
| 2026-05-07 11:37 | 53.16885 | -130.20734 | 40211 ft | 405 kts | 312° |
| 2026-05-07 11:37 | 53.21017 | -130.27023 | 40222 ft | 404 kts | 312° |
| 2026-05-07 11:38 | 53.25185 | -130.33342 | 40217 ft | 404 kts | 313° |
| 2026-05-07 11:38 | 53.29303 | -130.39575 | 40219 ft | 404 kts | 313° |
| 2026-05-07 11:39 | 53.33469 | -130.45868 | 40227 ft | 403 kts | 313° |
| 2026-05-07 11:39 | 53.37606 | -130.52115 | 40223 ft | 403 kts | 313° |
| 2026-05-07 11:40 | 53.41777 | -130.58406 | 40226 ft | 405 kts | 313° |
| 2026-05-07 11:40 | 53.45925 | -130.64661 | 40224 ft | 404 kts | 313° |
| 2026-05-07 11:41 | 53.50114 | -130.70975 | 40238 ft | 404 kts | 312° |
| 2026-05-07 11:41 | 53.54262 | -130.77211 | 40241 ft | 403 kts | 312° |
| 2026-05-07 11:42 | 53.58436 | -130.83496 | 40232 ft | 403 kts | 312° |
| 2026-05-07 11:42 | 53.62595 | -130.89743 | 40231 ft | 403 kts | 312° |
| 2026-05-07 11:43 | 53.66777 | -130.96024 | 40239 ft | 403 kts | 313° |
| 2026-05-07 11:43 | 53.70943 | -131.02272 | 40242 ft | 403 kts | 313° |
| 2026-05-07 11:44 | 53.75111 | -131.08553 | 40232 ft | 402 kts | 311° |
| 2026-05-07 11:44 | 53.79148 | -131.14954 | 40238 ft | 401 kts | 311° |
| 2026-05-07 11:45 | 53.83203 | -131.21381 | 40245 ft | 401 kts | 311° |
| 2026-05-07 11:45 | 53.87255 | -131.27789 | 40263 ft | 401 kts | 311° |
| 2026-05-07 11:46 | 53.91316 | -131.34190 | 40258 ft | 399 kts | 311° |
| 2026-05-07 11:46 | 53.95381 | -131.40599 | 40253 ft | 400 kts | 311° |
| 2026-05-07 11:47 | 53.99427 | -131.46957 | 40269 ft | 399 kts | 311° |
| 2026-05-07 11:47 | 54.03472 | -131.53319 | 40258 ft | 398 kts | 311° |
| 2026-05-07 11:48 | 54.07517 | -131.59679 | 40271 ft | 398 kts | 311° |
| 2026-05-07 11:48 | 54.11592 | -131.66072 | 40260 ft | 399 kts | 310° |
| 2026-05-07 11:49 | 54.15670 | -131.72475 | 40255 ft | 400 kts | 310° |
| 2026-05-07 11:49 | 54.19735 | -131.78844 | 40266 ft | 401 kts | 311° |
| 2026-05-07 11:50 | 54.23832 | -131.85260 | 40258 ft | 401 kts | 311° |
| 2026-05-07 11:50 | 54.27935 | -131.91682 | 40238 ft | 400 kts | 311° |
| 2026-05-07 11:51 | 54.32024 | -131.98070 | 40232 ft | 401 kts | 311° |
| 2026-05-07 11:51 | 54.36147 | -132.04530 | 40254 ft | 402 kts | 310° |
| 2026-05-07 11:52 | 54.40148 | -132.11156 | 40251 ft | 403 kts | 309° |
| 2026-05-07 11:52 | 54.44186 | -132.17841 | 40234 ft | 404 kts | 310° |
| 2026-05-07 11:53 | 54.48226 | -132.24512 | 40272 ft | 405 kts | 310° |
| 2026-05-07 11:53 | 54.52273 | -132.31174 | 40269 ft | 406 kts | 310° |
| 2026-05-07 11:54 | 54.56342 | -132.37857 | 40222 ft | 405 kts | 310° |
| 2026-05-07 11:54 | 54.60411 | -132.44542 | 40253 ft | 408 kts | 310° |
| 2026-05-07 11:55 | 54.64496 | -132.51247 | 40245 ft | 408 kts | 310° |
| 2026-05-07 11:55 | 54.68625 | -132.58011 | 40282 ft | 410 kts | 310° |
| 2026-05-07 11:56 | 54.72730 | -132.64734 | 40240 ft | 409 kts | 310° |
| 2026-05-07 11:56 | 54.76865 | -132.71504 | 40246 ft | 410 kts | 310° |
| 2026-05-07 11:57 | 54.80991 | -132.78244 | 40242 ft | 411 kts | 309° |
| 2026-05-07 11:57 | 54.85126 | -132.85005 | 40240 ft | 411 kts | 310° |
| 2026-05-07 11:58 | 54.89262 | -132.91754 | 40204 ft | 410 kts | 309° |
| 2026-05-07 11:58 | 54.93403 | -132.98503 | 40207 ft | 410 kts | 310° |
| 2026-05-07 11:59 | 54.97519 | -133.05315 | 40220 ft | 409 kts | 308° |
| 2026-05-07 11:59 | 55.01544 | -133.12308 | 40219 ft | 410 kts | 309° |
| 2026-05-07 12:00 | 55.05583 | -133.19282 | 40246 ft | 411 kts | 308° |
| 2026-05-07 12:00 | 55.09642 | -133.26282 | 40225 ft | 412 kts | 309° |
| 2026-05-07 12:01 | 55.13705 | -133.33254 | 40267 ft | 414 kts | 309° |
| 2026-05-07 12:01 | 55.17808 | -133.40300 | 40242 ft | 415 kts | 309° |
| 2026-05-07 12:02 | 55.21922 | -133.47354 | 40259 ft | 416 kts | 309° |
| 2026-05-07 12:02 | 55.26029 | -133.54395 | 40292 ft | 417 kts | 309° |
| 2026-05-07 12:03 | 55.30174 | -133.61488 | 40238 ft | 417 kts | 309° |
| 2026-05-07 12:03 | 55.34297 | -133.68541 | 40265 ft | 416 kts | 309° |
| 2026-05-07 12:04 | 55.38461 | -133.75656 | 40248 ft | 417 kts | 309° |
| 2026-05-07 12:04 | 55.42596 | -133.82712 | 40226 ft | 417 kts | 309° |
| 2026-05-07 12:05 | 55.46742 | -133.89777 | 40235 ft | 418 kts | 309° |
| 2026-05-07 12:05 | 55.50917 | -133.96895 | 40244 ft | 420 kts | 310° |
| 2026-05-07 12:06 | 55.55111 | -134.04024 | 40278 ft | 421 kts | 309° |
| 2026-05-07 12:06 | 55.59199 | -134.11343 | 40257 ft | 420 kts | 308° |
| 2026-05-07 12:07 | 55.63248 | -134.18700 | 40241 ft | 420 kts | 308° |
| 2026-05-07 12:07 | 55.67331 | -134.26064 | 40230 ft | 422 kts | 309° |
| 2026-05-07 12:08 | 55.71442 | -134.33452 | 40213 ft | 423 kts | 309° |
| 2026-05-07 12:08 | 55.75544 | -134.40826 | 40237 ft | 424 kts | 309° |
| 2026-05-07 12:09 | 55.79701 | -134.48277 | 40218 ft | 425 kts | 309° |
| 2026-05-07 12:09 | 55.83848 | -134.55719 | 40236 ft | 426 kts | 309° |
| 2026-05-07 12:10 | 55.87993 | -134.63136 | 40256 ft | 427 kts | 309° |
| 2026-05-07 12:10 | 55.92191 | -134.70654 | 40246 ft | 429 kts | 309° |
| 2026-05-07 12:11 | 55.96364 | -134.78107 | 40275 ft | 429 kts | 309° |
| 2026-05-07 12:11 | 56.00554 | -134.85580 | 40250 ft | 428 kts | 309° |
| 2026-05-07 12:12 | 56.04749 | -134.93065 | 40242 ft | 429 kts | 309° |
| 2026-05-07 12:12 | 56.08970 | -135.00583 | 40205 ft | 428 kts | 309° |
| 2026-05-07 12:13 | 56.13174 | -135.08061 | 40258 ft | 430 kts | 309° |
| 2026-05-07 12:13 | 56.17317 | -135.15756 | 40255 ft | 429 kts | 308° |
| 2026-05-07 12:14 | 56.21382 | -135.23491 | 40243 ft | 430 kts | 308° |
| 2026-05-07 12:14 | 56.25481 | -135.31247 | 40248 ft | 430 kts | 308° |
| 2026-05-07 12:15 | 56.29597 | -135.38998 | 40254 ft | 432 kts | 308° |
| 2026-05-07 12:15 | 56.33738 | -135.46794 | 40231 ft | 431 kts | 308° |
| 2026-05-07 12:16 | 56.37894 | -135.54604 | 40252 ft | 433 kts | 309° |
| 2026-05-07 12:16 | 56.42054 | -135.62407 | 40244 ft | 434 kts | 309° |
| 2026-05-07 12:17 | 56.46216 | -135.70215 | 40246 ft | 436 kts | 308° |
| 2026-05-07 12:17 | 56.50399 | -135.78049 | 40242 ft | 435 kts | 308° |
| 2026-05-07 12:18 | 56.54610 | -135.85922 | 40235 ft | 436 kts | 308° |
| 2026-05-07 12:18 | 56.58828 | -135.93810 | 40244 ft | 438 kts | 309° |
| 2026-05-07 12:19 | 56.63048 | -136.01682 | 40223 ft | 438 kts | 309° |
| 2026-05-07 12:19 | 56.67265 | -136.09544 | 40245 ft | 438 kts | 309° |
| 2026-05-07 12:20 | 56.71528 | -136.17477 | 40262 ft | 440 kts | 309° |
| 2026-05-07 12:20 | 56.75645 | -136.25574 | 40267 ft | 439 kts | 307° |
| 2026-05-07 12:21 | 56.79772 | -136.33810 | 40274 ft | 440 kts | 308° |
| 2026-05-07 12:21 | 56.83873 | -136.41946 | 40292 ft | 441 kts | 308° |
| 2026-05-07 12:22 | 56.88046 | -136.50186 | 40275 ft | 442 kts | 308° |
| 2026-05-07 12:22 | 56.92207 | -136.58394 | 40257 ft | 441 kts | 308° |
| 2026-05-07 12:23 | 56.96349 | -136.66553 | 40264 ft | 443 kts | 307° |
| 2026-05-07 12:23 | 57.00544 | -136.74812 | 40253 ft | 445 kts | 308° |
| 2026-05-07 12:24 | 57.04750 | -136.83072 | 40263 ft | 446 kts | 308° |
| 2026-05-07 12:24 | 57.08954 | -136.91322 | 40255 ft | 445 kts | 308° |
| 2026-05-07 12:25 | 57.13185 | -136.99615 | 40251 ft | 444 kts | 308° |
| 2026-05-07 12:25 | 57.17383 | -137.07831 | 40247 ft | 445 kts | 308° |
| 2026-05-07 12:26 | 57.21630 | -137.16136 | 40242 ft | 445 kts | 308° |
| 2026-05-07 12:26 | 57.25862 | -137.24402 | 40241 ft | 446 kts | 309° |
| 2026-05-07 12:27 | 57.30085 | -137.32747 | 40255 ft | 447 kts | 307° |
| 2026-05-07 12:27 | 57.34168 | -137.41338 | 40258 ft | 448 kts | 307° |
| 2026-05-07 12:28 | 57.38274 | -137.49921 | 40255 ft | 447 kts | 307° |
| 2026-05-07 12:28 | 57.42406 | -137.58511 | 40256 ft | 448 kts | 307° |
| 2026-05-07 12:29 | 57.46525 | -137.67049 | 40257 ft | 448 kts | 307° |
| 2026-05-07 12:29 | 57.50663 | -137.75612 | 40249 ft | 448 kts | 307° |
| 2026-05-07 12:30 | 57.54835 | -137.84233 | 40246 ft | 448 kts | 307° |
| 2026-05-07 12:30 | 57.58963 | -137.92758 | 40249 ft | 448 kts | 307° |
| 2026-05-07 12:31 | 57.63144 | -138.01381 | 40241 ft | 449 kts | 307° |
| 2026-05-07 12:31 | 57.67319 | -138.09975 | 40250 ft | 450 kts | 308° |
| 2026-05-07 12:32 | 57.71507 | -138.18581 | 40241 ft | 451 kts | 308° |
| 2026-05-07 12:32 | 57.75726 | -138.27243 | 40238 ft | 451 kts | 308° |
| 2026-05-07 12:33 | 57.82061 | -138.40228 | 40249 ft | 452 kts | 308° |
| 2026-05-07 12:33 | 57.86209 | -138.48895 | 40241 ft | 450 kts | 306° |
| 2026-05-07 12:34 | 57.90254 | -138.57855 | 40243 ft | 452 kts | 306° |
| 2026-05-07 12:34 | 57.94316 | -138.66785 | 40233 ft | 452 kts | 306° |
| 2026-05-07 12:35 | 57.98398 | -138.75707 | 40227 ft | 451 kts | 306° |
| 2026-05-07 12:35 | 58.02496 | -138.84634 | 40231 ft | 452 kts | 306° |
| 2026-05-07 12:36 | 58.06577 | -138.93515 | 40228 ft | 452 kts | 307° |
| 2026-05-07 12:36 | 58.10714 | -139.02499 | 40216 ft | 453 kts | 307° |
| 2026-05-07 12:37 | 58.14809 | -139.11392 | 40232 ft | 454 kts | 307° |
| 2026-05-07 12:37 | 58.18964 | -139.20392 | 40229 ft | 454 kts | 307° |
| 2026-05-07 12:38 | 58.23095 | -139.29324 | 40215 ft | 454 kts | 307° |
| 2026-05-07 12:38 | 58.27248 | -139.38301 | 40225 ft | 455 kts | 307° |
| 2026-05-07 12:39 | 58.31416 | -139.47287 | 40235 ft | 454 kts | 307° |
| 2026-05-07 12:39 | 58.35567 | -139.56226 | 40217 ft | 454 kts | 307° |
| 2026-05-07 12:40 | 58.39742 | -139.65245 | 40216 ft | 454 kts | 306° |
| 2026-05-07 12:40 | 58.43760 | -139.74466 | 40220 ft | 454 kts | 305° |
| 2026-05-07 12:41 | 58.47773 | -139.83655 | 40216 ft | 455 kts | 306° |
| 2026-05-07 12:41 | 58.51828 | -139.92885 | 40226 ft | 455 kts | 306° |
| 2026-05-07 12:42 | 58.55901 | -140.02129 | 40213 ft | 456 kts | 306° |
| 2026-05-07 12:42 | 58.59959 | -140.11317 | 40201 ft | 456 kts | 306° |
| 2026-05-07 12:43 | 58.64047 | -140.20564 | 40199 ft | 456 kts | 306° |
| 2026-05-07 12:43 | 58.68132 | -140.29787 | 40210 ft | 457 kts | 306° |
| 2026-05-07 12:44 | 58.72248 | -140.39070 | 40215 ft | 457 kts | 307° |
| 2026-05-07 12:44 | 58.76394 | -140.48270 | 40209 ft | 459 kts | 311° |
| 2026-05-07 12:45 | 58.81029 | -140.56723 | 40193 ft | 460 kts | 308° |
| 2026-05-07 12:45 | 58.84654 | -140.66641 | 40209 ft | 455 kts | 296° |
| 2026-05-07 12:46 | 58.87806 | -140.77151 | 40196 ft | 453 kts | 296° |
| 2026-05-07 12:46 | 58.90934 | -140.87625 | 40202 ft | 453 kts | 296° |
| 2026-05-07 12:47 | 58.94078 | -140.98112 | 40192 ft | 454 kts | 297° |
| 2026-05-07 12:47 | 58.97232 | -141.08612 | 40183 ft | 454 kts | 297° |
| 2026-05-07 12:48 | 59.00402 | -141.19138 | 40189 ft | 454 kts | 297° |
| 2026-05-07 12:48 | 59.03585 | -141.29691 | 40188 ft | 455 kts | 297° |
| 2026-05-07 12:49 | 59.06786 | -141.40268 | 40179 ft | 455 kts | 297° |
| 2026-05-07 12:49 | 59.09966 | -141.50746 | 40188 ft | 455 kts | 297° |
| 2026-05-07 12:50 | 59.13183 | -141.61319 | 40202 ft | 456 kts | 298° |
| 2026-05-07 12:50 | 59.16396 | -141.71854 | 40198 ft | 456 kts | 297° |
| 2026-05-07 12:51 | 59.19647 | -141.82474 | 40201 ft | 457 kts | 297° |
| 2026-05-07 12:51 | 59.22904 | -141.93097 | 40187 ft | 458 kts | 297° |
| 2026-05-07 12:52 | 59.26156 | -142.03670 | 40199 ft | 458 kts | 297° |
| 2026-05-07 12:52 | 59.29219 | -142.14482 | 40192 ft | 457 kts | 295° |
| 2026-05-07 12:53 | 59.32230 | -142.25360 | 40187 ft | 457 kts | 296° |
| 2026-05-07 12:53 | 59.35267 | -142.36206 | 40191 ft | 457 kts | 296° |
| 2026-05-07 12:54 | 59.38349 | -142.47131 | 40184 ft | 458 kts | 296° |
| 2026-05-07 12:54 | 59.41424 | -142.57993 | 40194 ft | 459 kts | 296° |
| 2026-05-07 12:55 | 59.44513 | -142.68881 | 40192 ft | 460 kts | 296° |
| 2026-05-07 12:55 | 59.47607 | -142.79750 | 40196 ft | 460 kts | 296° |
| 2026-05-07 12:56 | 59.50738 | -142.90721 | 40186 ft | 460 kts | 296° |
| 2026-05-07 12:56 | 59.53859 | -143.01623 | 40184 ft | 459 kts | 296° |
| 2026-05-07 12:57 | 59.56993 | -143.12541 | 40183 ft | 460 kts | 296° |
| 2026-05-07 12:57 | 59.60135 | -143.23460 | 40181 ft | 460 kts | 297° |
| 2026-05-07 12:58 | 59.63275 | -143.34334 | 40185 ft | 461 kts | 297° |
| 2026-05-07 12:58 | 59.66456 | -143.45320 | 40193 ft | 462 kts | 297° |
| 2026-05-07 12:59 | 59.69466 | -143.56497 | 40174 ft | 461 kts | 295° |
| 2026-05-07 12:59 | 59.72366 | -143.67709 | 40166 ft | 461 kts | 294° |
| 2026-05-07 13:00 | 59.75299 | -143.78899 | 40169 ft | 462 kts | 295° |
| 2026-05-07 13:00 | 59.78284 | -143.90189 | 40172 ft | 462 kts | 295° |
| 2026-05-07 13:01 | 59.81253 | -144.01366 | 40175 ft | 462 kts | 295° |
| 2026-05-07 13:01 | 59.84245 | -144.12610 | 40158 ft | 462 kts | 295° |
| 2026-05-07 13:02 | 59.87249 | -144.23865 | 40159 ft | 463 kts | 295° |
| 2026-05-07 13:02 | 59.90256 | -144.35088 | 40160 ft | 463 kts | 296° |
| 2026-05-07 13:03 | 59.93295 | -144.46403 | 40159 ft | 464 kts | 296° |
| 2026-05-07 13:03 | 59.96324 | -144.57643 | 40159 ft | 464 kts | 296° |
| 2026-05-07 13:04 | 59.99360 | -144.68875 | 40160 ft | 463 kts | 295° |
| 2026-05-07 13:04 | 60.02418 | -144.80148 | 40174 ft | 463 kts | 296° |
| 2026-05-07 13:05 | 60.05489 | -144.91435 | 40160 ft | 464 kts | 296° |
| 2026-05-07 13:05 | 60.08376 | -145.02867 | 40170 ft | 464 kts | 293° |
| 2026-05-07 13:06 | 60.11178 | -145.14478 | 40156 ft | 464 kts | 294° |
| 2026-05-07 13:06 | 60.14012 | -145.26051 | 40162 ft | 464 kts | 294° |
| 2026-05-07 13:07 | 60.16869 | -145.37607 | 40165 ft | 465 kts | 294° |
| 2026-05-07 13:07 | 60.19744 | -145.49188 | 40158 ft | 464 kts | 294° |
| 2026-05-07 13:08 | 60.22618 | -145.60727 | 40161 ft | 465 kts | 295° |
| 2026-05-07 13:08 | 60.25495 | -145.72246 | 40161 ft | 465 kts | 294° |
| 2026-05-07 13:09 | 60.28414 | -145.83881 | 40152 ft | 465 kts | 294° |
| 2026-05-07 13:09 | 60.31307 | -145.95383 | 40154 ft | 465 kts | 294° |
| 2026-05-07 13:10 | 60.34233 | -146.06981 | 40161 ft | 465 kts | 295° |
| 2026-05-07 13:10 | 60.37170 | -146.18576 | 40149 ft | 465 kts | 295° |
| 2026-05-07 13:11 | 60.40113 | -146.30153 | 40149 ft | 466 kts | 295° |
| 2026-05-07 13:11 | 60.43055 | -146.41690 | 40145 ft | 466 kts | 295° |
| 2026-05-07 13:12 | 60.46012 | -146.53337 | 40125 ft | 468 kts | 300° |
| 2026-05-07 13:12 | 60.49696 | -146.64143 | 40132 ft | 470 kts | 304° |
| 2026-05-07 13:13 | 60.53548 | -146.74751 | 40147 ft | 470 kts | 303° |
| 2026-05-07 13:13 | 60.57429 | -146.85376 | 40148 ft | 470 kts | 304° |
| 2026-05-07 13:14 | 60.61319 | -146.96008 | 40149 ft | 470 kts | 304° |
| 2026-05-07 13:14 | 60.65201 | -147.06615 | 40144 ft | 470 kts | 303° |
| 2026-05-07 13:15 | 60.68877 | -147.17522 | 40146 ft | 470 kts | 302° |
| 2026-05-07 13:15 | 60.72573 | -147.28531 | 40149 ft | 470 kts | 302° |
| 2026-05-07 13:16 | 60.76277 | -147.39458 | 39622 ft | 473 kts | 302° |
| 2026-05-07 13:16 | 60.78134 | -147.44910 | 38887 ft | 473 kts | 303° |
| 2026-05-07 13:16 | 60.80012 | -147.50411 | 38133 ft | 471 kts | 303° |
| 2026-05-07 13:17 | 60.81873 | -147.55852 | 37445 ft | 468 kts | 303° |
| 2026-05-07 13:17 | 60.83718 | -147.61244 | 36795 ft | 466 kts | 302° |
| 2026-05-07 13:17 | 60.85552 | -147.66602 | 36098 ft | 464 kts | 301° |
| 2026-05-07 13:17 | 60.87407 | -147.72026 | 35310 ft | 464 kts | 301° |
| 2026-05-07 13:18 | 60.89243 | -147.77380 | 34506 ft | 464 kts | 301° |
| 2026-05-07 13:18 | 60.91093 | -147.82770 | 33687 ft | 464 kts | 301° |
| 2026-05-07 13:18 | 60.92945 | -147.88158 | 32975 ft | 464 kts | 301° |
| 2026-05-07 13:18 | 60.94788 | -147.93509 | 32356 ft | 462 kts | 301° |
| 2026-05-07 13:19 | 60.96627 | -147.98843 | 31716 ft | 460 kts | 301° |
| 2026-05-07 13:19 | 60.98445 | -148.04114 | 31043 ft | 458 kts | 301° |
| 2026-05-07 13:19 | 61.00286 | -148.09453 | 30085 ft | 457 kts | 301° |
| 2026-05-07 13:19 | 61.02100 | -148.14712 | 28864 ft | 459 kts | 301° |
| 2026-05-07 13:20 | 61.03947 | -148.20055 | 27501 ft | 463 kts | 302° |
| 2026-05-07 13:20 | 61.05804 | -148.25413 | 26114 ft | 466 kts | 302° |
| 2026-05-07 13:20 | 61.07689 | -148.30839 | 25311 ft | 463 kts | 302° |
| 2026-05-07 13:20 | 61.09530 | -148.36131 | 24533 ft | 460 kts | 302° |
| 2026-05-07 13:21 | 61.11391 | -148.41478 | 23718 ft | 456 kts | 302° |
| 2026-05-07 13:21 | 61.13168 | -148.46747 | 22912 ft | 449 kts | 299° |
| 2026-05-07 13:21 | 61.14635 | -148.52319 | 22093 ft | 441 kts | 292° |
| 2026-05-07 13:21 | 61.15726 | -148.58186 | 21312 ft | 435 kts | 287° |
| 2026-05-07 13:22 | 61.16700 | -148.64014 | 20241 ft | 432 kts | 287° |
| 2026-05-07 13:22 | 61.17672 | -148.69812 | 19256 ft | 425 kts | 286° |
| 2026-05-07 13:22 | 61.18641 | -148.75494 | 18278 ft | 419 kts | 287° |
| 2026-05-07 13:22 | 61.19606 | -148.81087 | 17276 ft | 415 kts | 287° |
| 2026-05-07 13:23 | 61.20578 | -148.86676 | 16235 ft | 411 kts | 287° |
| 2026-05-07 13:23 | 61.21534 | -148.92149 | 15558 ft | 398 kts | 287° |
| 2026-05-07 13:23 | 61.22445 | -148.97316 | 15387 ft | 374 kts | 287° |
| 2026-05-07 13:23 | 61.23304 | -149.02156 | 14800 ft | 350 kts | 288° |
| 2026-05-07 13:24 | 61.24302 | -149.06651 | 14743 ft | 343 kts | 296° |
| 2026-05-07 13:24 | 61.25585 | -149.10742 | 14398 ft | 343 kts | 304° |
| 2026-05-07 13:24 | 61.27190 | -149.14391 | 13844 ft | 341 kts | 313° |
| 2026-05-07 13:24 | 61.28424 | -149.16862 | 13484 ft | 337 kts | 313° |
| 2026-05-07 13:25 | 61.28635 | -149.17281 | 13425 ft | 337 kts | 313° |
| 2026-05-07 13:25 | 61.30296 | -149.20593 | 12985 ft | 335 kts | 313° |
| 2026-05-07 13:26 | 61.31930 | -149.23906 | 12511 ft | 335 kts | 313° |
| 2026-05-07 13:26 | 61.33572 | -149.27269 | 12006 ft | 334 kts | 313° |
| 2026-05-07 13:26 | 61.35199 | -149.30618 | 11501 ft | 331 kts | 313° |
| 2026-05-07 13:26 | 61.36802 | -149.33923 | 11017 ft | 326 kts | 313° |
| 2026-05-07 13:27 | 61.38356 | -149.37123 | 10599 ft | 309 kts | 313° |
| 2026-05-07 13:27 | 61.39837 | -149.40173 | 10457 ft | 300 kts | 313° |
| 2026-05-07 13:27 | 61.41309 | -149.43205 | 10328 ft | 292 kts | 313° |
| 2026-05-07 13:27 | 61.42729 | -149.46135 | 10194 ft | 289 kts | 313° |
| 2026-05-07 13:28 | 61.44144 | -149.49056 | 9826 ft | 289 kts | 313° |
| 2026-05-07 13:28 | 61.45569 | -149.51991 | 9456 ft | 284 kts | 314° |
| 2026-05-07 13:28 | 61.46923 | -149.54788 | 9322 ft | 269 kts | 311° |
| 2026-05-07 13:28 | 61.48052 | -149.57758 | 9317 ft | 260 kts | 297° |
| 2026-05-07 13:29 | 61.48721 | -149.61180 | 9054 ft | 252 kts | 280° |
| 2026-05-07 13:29 | 61.48931 | -149.64749 | 8820 ft | 251 kts | 271° |
| 2026-05-07 13:29 | 61.49038 | -149.68338 | 8554 ft | 249 kts | 270° |
| 2026-05-07 13:29 | 61.49162 | -149.71890 | 8310 ft | 248 kts | 271° |
| 2026-05-07 13:30 | 61.49311 | -149.75369 | 8065 ft | 243 kts | 271° |
| 2026-05-07 13:30 | 61.49473 | -149.78758 | 7820 ft | 233 kts | 271° |
| 2026-05-07 13:30 | 61.49633 | -149.82001 | 7650 ft | 227 kts | 271° |
| 2026-05-07 13:30 | 61.49793 | -149.85233 | 7534 ft | 227 kts | 272° |
| 2026-05-07 13:31 | 61.49957 | -149.88455 | 7358 ft | 227 kts | 272° |
| 2026-05-07 13:31 | 61.50127 | -149.91740 | 7142 ft | 228 kts | 272° |
| 2026-05-07 13:31 | 61.50294 | -149.94981 | 6906 ft | 227 kts | 272° |
| 2026-05-07 13:31 | 61.50462 | -149.98204 | 6677 ft | 227 kts | 272° |
| 2026-05-07 13:32 | 61.50633 | -150.01485 | 6418 ft | 226 kts | 272° |
| 2026-05-07 13:32 | 61.50807 | -150.04744 | 6183 ft | 224 kts | 272° |
| 2026-05-07 13:32 | 61.50973 | -150.07895 | 5866 ft | 216 kts | 272° |
| 2026-05-07 13:32 | 61.51133 | -150.10960 | 5473 ft | 208 kts | 270° |
| 2026-05-07 13:33 | 61.50907 | -150.13821 | 5056 ft | 199 kts | 242° |
| 2026-05-07 13:33 | 61.50156 | -150.16113 | 4726 ft | 189 kts | 217° |
| 2026-05-07 13:33 | 61.49041 | -150.17390 | 4278 ft | 183 kts | 195° |
| 2026-05-07 13:33 | 61.47814 | -150.17584 | 3848 ft | 181 kts | 173° |
| 2026-05-07 13:34 | 61.46638 | -150.16904 | 3617 ft | 172 kts | 162° |
| 2026-05-07 13:34 | 61.44466 | -150.15311 | 3433 ft | 154 kts | 162° |
| 2026-05-07 13:34 | 61.43477 | -150.14629 | 3331 ft | 147 kts | 163° |
| 2026-05-07 13:35 | 61.42514 | -150.14014 | 3193 ft | 145 kts | 164° |
| 2026-05-07 13:35 | 61.41558 | -150.13429 | 3082 ft | 142 kts | 165° |
| 2026-05-07 13:35 | 61.40613 | -150.12913 | 3065 ft | 142 kts | 168° |
| 2026-05-07 13:35 | 61.39636 | -150.12483 | 3049 ft | 143 kts | 170° |
| 2026-05-07 13:36 | 61.38669 | -150.12056 | 3014 ft | 143 kts | 166° |
| 2026-05-07 13:36 | 61.37733 | -150.11444 | 2980 ft | 141 kts | 165° |
| 2026-05-07 13:36 | 61.36782 | -150.10915 | 2838 ft | 142 kts | 167° |
| 2026-05-07 13:36 | 61.35823 | -150.10399 | 2657 ft | 143 kts | 164° |
| 2026-05-07 13:37 | 61.34904 | -150.09811 | 2472 ft | 138 kts | 164° |
| 2026-05-07 13:37 | 61.33997 | -150.09262 | 2310 ft | 134 kts | 165° |
| 2026-05-07 13:37 | 61.33107 | -150.08769 | 2197 ft | 132 kts | 166° |
| 2026-05-07 13:37 | 61.32212 | -150.08308 | 2061 ft | 134 kts | 166° |
| 2026-05-07 13:38 | 61.31320 | -150.07843 | 1915 ft | 132 kts | 165° |
| 2026-05-07 13:38 | 61.30429 | -150.07321 | 1775 ft | 133 kts | 163° |
| 2026-05-07 13:38 | 61.29557 | -150.06776 | 1625 ft | 133 kts | 165° |
| 2026-05-07 13:38 | 61.28659 | -150.06253 | 1560 ft | 134 kts | 164° |
| 2026-05-07 13:39 | 61.27771 | -150.05714 | 1590 ft | 133 kts | 165° |
| 2026-05-07 13:39 | 61.26876 | -150.05267 | 1596 ft | 134 kts | 167° |
| 2026-05-07 13:39 | 61.25983 | -150.04816 | 1552 ft | 133 kts | 166° |
| 2026-05-07 13:39 | 61.25081 | -150.04323 | 1339 ft | 134 kts | 165° |
| 2026-05-07 13:40 | 61.24212 | -150.03812 | 1136 ft | 133 kts | 164° |
| 2026-05-07 13:40 | 61.23334 | -150.03282 | 942 ft | 132 kts | 166° |
| 2026-05-07 13:40 | 61.22448 | -150.02808 | 764 ft | 132 kts | 166° |
| 2026-05-07 13:40 | 61.21574 | -150.02321 | 593 ft | 133 kts | 165° |
| 2026-05-07 13:41 | 61.20696 | -150.01822 | 395 ft | 133 kts | 166° |
| 2026-05-07 13:41 | 61.19811 | -150.01349 | 205 ft | 134 kts | 167° |
| 2026-05-07 13:41 | 61.19062 | -150.00944 | 164 ft | 60 kts | 168° |
| 2026-05-07 13:41 | 61.18960 | -150.00903 | 163 ft | 1 kts | 170° |